createdAt,value
2022-11-02T00:01:33.988Z,101634.41
2022-11-02T00:06:30.844Z,101595.66
2022-11-02T00:11:27.751Z,101626.81
2022-11-02T00:16:25.785Z,101594.25
2022-11-02T00:21:25.003Z,101633.31
2022-11-02T00:26:22.079Z,101560.63
2022-11-02T00:31:18.945Z,101598.00
2022-11-02T00:36:16.969Z,101613.38
2022-11-02T00:41:14.851Z,101605.72
2022-11-02T00:46:11.901Z,101623.03
2022-11-02T00:51:08.899Z,101603.56
2022-11-02T00:56:07.954Z,101581.66
2022-11-02T01:01:05.874Z,101616.75
2022-11-02T01:06:08.404Z,101611.22
2022-11-02T01:11:14.262Z,101593.59
2022-11-02T01:16:12.586Z,101606.25
2022-11-02T01:21:09.980Z,101622.91
2022-11-02T01:26:08.738Z,101587.03
2022-11-02T01:31:07.436Z,101564.00
2022-11-02T01:36:06.092Z,101605.50
2022-11-02T01:41:02.886Z,101608.47
2022-11-02T01:46:05.734Z,101604.38
2022-11-02T01:51:07.875Z,101599.50
2022-11-02T01:56:05.924Z,101564.09
2022-11-02T02:01:03.480Z,101606.38
2022-11-02T02:06:06.677Z,101590.38
2022-11-02T02:11:03.902Z,101562.50
2022-11-02T02:16:11.613Z,101569.75
2022-11-02T02:21:25.884Z,101601.44
2022-11-02T02:27:05.075Z,101598.28
2022-11-02T02:32:08.669Z,101569.19
2022-11-02T02:37:14.069Z,101594.22
2022-11-02T02:42:18.706Z,101520.81
2022-11-02T02:47:21.192Z,101584.66
2022-11-02T02:52:20.452Z,101515.53
2022-11-02T02:57:20.291Z,101528.28
2022-11-02T03:02:24.157Z,101471.91
2022-11-02T03:07:27.219Z,101553.69
2022-11-02T03:12:31.768Z,101570.75
2022-11-02T03:17:33.441Z,101512.75
2022-11-02T03:22:39.148Z,101554.03
2022-11-02T03:27:43.985Z,101544.47
2022-11-02T03:32:50.225Z,101532.19
2022-11-02T03:37:52.760Z,101556.03
2022-11-02T03:42:52.493Z,101508.81
2022-11-02T03:47:53.929Z,101558.09
2022-11-02T03:52:58.759Z,101527.44
2022-11-02T03:57:58.941Z,101561.50
2022-11-02T04:03:03.476Z,101557.09
2022-11-02T04:08:23.747Z,101554.34
2022-11-02T04:13:42.821Z,101542.13
2022-11-02T04:18:58.476Z,101522.28
2022-11-02T04:24:14.762Z,101514.34
2022-11-02T04:29:12.085Z,101510.91
2022-11-02T04:34:10.071Z,101522.78
2022-11-02T04:39:07.808Z,101532.41
2022-11-02T04:44:05.580Z,101533.44
2022-11-02T04:49:03.824Z,101531.91
2022-11-02T04:54:03.710Z,101517.41
2022-11-02T04:59:02.251Z,101494.56
2022-11-02T05:04:02.544Z,101477.84
2022-11-02T05:09:03.142Z,101512.94
2022-11-02T05:14:01.297Z,101513.63
2022-11-02T05:18:59.492Z,101502.25
2022-11-02T05:24:00.219Z,101523.44
2022-11-02T05:28:59.066Z,101566.00
2022-11-02T05:33:56.555Z,101536.63
2022-11-02T05:38:54.184Z,101560.66
2022-11-02T05:43:51.553Z,101524.41
2022-11-02T05:48:51.296Z,101526.81
2022-11-02T05:53:48.277Z,101597.38
2022-11-02T05:58:45.325Z,101596.88
2022-11-02T06:03:42.344Z,101556.47
2022-11-02T06:08:40.687Z,101557.84
2022-11-02T06:13:38.694Z,101532.13
2022-11-02T06:18:36.551Z,101547.63
2022-11-02T06:23:33.992Z,101563.84
2022-11-02T06:28:32.003Z,101575.66
2022-11-02T06:33:29.448Z,101575.72
2022-11-02T06:38:26.459Z,101540.78
2022-11-02T06:43:23.957Z,101584.31
2022-11-02T06:48:21.795Z,101534.28
2022-11-02T06:53:18.725Z,101470.84
2022-11-02T06:58:15.601Z,101571.22
2022-11-02T07:03:12.654Z,101526.03
2022-11-02T07:08:10.237Z,101566.75
2022-11-02T07:13:08.191Z,101474.88
2022-11-02T07:18:06.182Z,101531.38
2022-11-02T07:23:04.848Z,101554.97
2022-11-02T07:28:04.066Z,101538.53
2022-11-02T07:33:01.603Z,101564.84
2022-11-02T07:38:00.544Z,101549.72
2022-11-02T07:42:58.494Z,101520.16
2022-11-02T07:48:06.559Z,101542.34
2022-11-02T07:53:07.114Z,101560.25
2022-11-02T07:58:07.388Z,101523.00
2022-11-02T08:03:06.338Z,101560.66
2022-11-02T08:08:06.563Z,101548.00
2022-11-02T08:13:04.415Z,101466.06
2022-11-02T08:18:03.430Z,101550.59
2022-11-02T08:23:00.904Z,101529.59
2022-11-02T08:27:59.599Z,101524.28
2022-11-02T08:33:03.389Z,101507.00
2022-11-02T08:38:00.287Z,101514.59
2022-11-02T08:42:58.484Z,101501.56
2022-11-02T08:47:55.706Z,101504.44
2022-11-02T08:52:53.080Z,101492.44
2022-11-02T08:57:52.060Z,101493.94
2022-11-02T09:03:00.975Z,101436.22
2022-11-02T09:07:59.778Z,101483.22
2022-11-02T09:12:56.614Z,101455.94
2022-11-02T09:17:56.392Z,101462.28
2022-11-02T09:22:53.993Z,101467.72
2022-11-02T09:27:55.562Z,101416.56
2022-11-02T09:32:56.566Z,101477.19
2022-11-02T09:37:54.430Z,101459.97
2022-11-02T09:43:04.738Z,101471.72
2022-11-02T09:48:17.987Z,101474.97
2022-11-02T09:53:22.147Z,101420.88
2022-11-02T09:58:27.186Z,101456.66
2022-11-02T10:03:35.612Z,101364.38
2022-11-02T10:08:41.805Z,101443.13
2022-11-02T10:13:48.219Z,101443.28
2022-11-02T10:18:49.893Z,101431.22
2022-11-02T10:23:51.977Z,101431.91
2022-11-02T10:28:52.845Z,101423.09
2022-11-02T10:33:52.835Z,101400.28
2022-11-02T10:39:05.223Z,101422.75
2022-11-02T10:44:16.203Z,101424.38
2022-11-02T10:49:26.753Z,101407.25
2022-11-02T10:54:33.256Z,101367.06
2022-11-02T10:59:31.393Z,101409.47
2022-11-02T11:04:29.732Z,101395.91
2022-11-02T11:09:30.747Z,101384.69
2022-11-02T11:19:50.787Z,101350.47
2022-11-02T11:24:48.407Z,101339.59
2022-11-02T11:30:03.266Z,101365.50
2022-11-02T11:35:03.410Z,101371.31
2022-11-02T11:40:03.838Z,101329.63
2022-11-02T11:45:04.925Z,101300.53
2022-11-02T11:50:15.533Z,101294.44
2022-11-02T11:55:24.943Z,101301.09
2022-11-02T12:00:30.045Z,101326.31
2022-11-02T12:05:26.951Z,101329.28
2022-11-02T12:10:36.839Z,101248.31
2022-11-02T12:15:46.918Z,101328.00
2022-11-02T12:21:04.437Z,101280.16
2022-11-02T12:26:20.373Z,101262.28
2022-11-02T12:31:33.225Z,101275.28
2022-11-02T12:37:10.302Z,101274.47
2022-11-02T12:42:18.501Z,101212.09
2022-11-02T12:47:29.794Z,101231.47
2022-11-02T12:52:39.429Z,101270.63
2022-11-02T12:57:38.725Z,101269.09
2022-11-02T13:02:47.832Z,101266.91
2022-11-02T13:07:48.869Z,101253.06
2022-11-02T13:12:49.801Z,101250.25
2022-11-02T13:17:51.004Z,101168.56
2022-11-02T13:22:54.146Z,101254.09
2022-11-02T13:28:05.248Z,101175.28
2022-11-02T13:33:11.375Z,101178.53
2022-11-02T13:38:29.491Z,101218.88
2022-11-02T13:44:02.842Z,101259.25
2022-11-02T13:49:05.939Z,101258.91
2022-11-02T13:54:13.254Z,101261.16
2022-11-02T13:59:22.564Z,101249.31
2022-11-02T14:04:21.909Z,101212.84
2022-11-02T14:09:31.784Z,101194.72
2022-11-02T14:14:37.602Z,101252.34
2022-11-02T14:19:53.289Z,101203.06
2022-11-02T14:24:55.500Z,101240.41
2022-11-02T14:29:56.342Z,101246.63
2022-11-02T14:35:08.625Z,101210.03
2022-11-02T14:40:14.018Z,101196.28
2022-11-02T14:45:24.650Z,101248.88
2022-11-02T14:50:22.738Z,101227.34
2022-11-02T14:55:23.823Z,101223.69
2022-11-02T15:00:23.580Z,101241.13
2022-11-02T15:05:26.419Z,101245.47
2022-11-02T15:10:45.235Z,101204.84
2022-11-02T15:15:44.062Z,101246.50
2022-11-02T15:20:46.168Z,101206.41
2022-11-02T15:25:49.126Z,101209.72
2022-11-02T15:30:54.544Z,101187.34
2022-11-02T15:35:54.518Z,101209.09
2022-11-02T15:41:00.897Z,101260.38
2022-11-02T15:46:09.521Z,101212.91
2022-11-02T15:51:16.959Z,101261.75
2022-11-02T15:56:32.198Z,101280.00
2022-11-02T16:01:29.901Z,101238.28
2022-11-02T16:06:30.115Z,101264.72
2022-11-02T16:11:28.182Z,101248.91
2022-11-02T16:16:25.458Z,101313.72
2022-11-02T16:21:24.094Z,101320.75
2022-11-02T16:26:24.548Z,101291.53
2022-11-02T16:31:24.457Z,101333.00
2022-11-02T16:36:23.992Z,101313.25
2022-11-02T16:41:22.559Z,101331.53
2022-11-02T16:46:30.794Z,101246.47
2022-11-02T16:51:31.322Z,101344.00
2022-11-02T16:56:31.677Z,101293.59
2022-11-02T17:01:34.567Z,101321.22
2022-11-02T17:06:43.174Z,101283.41
2022-11-02T17:11:43.840Z,101342.41
2022-11-02T17:16:59.336Z,101251.53
2022-11-02T17:22:10.605Z,101291.16
2022-11-02T17:27:24.327Z,101309.75
2022-11-02T17:32:23.238Z,101340.78
2022-11-02T17:37:25.964Z,101293.56
2022-11-02T17:42:44.220Z,101351.66
2022-11-02T17:47:41.328Z,101358.19
2022-11-02T17:52:42.100Z,101312.66
2022-11-02T17:57:50.974Z,101326.47
2022-11-02T18:02:53.561Z,101309.81
2022-11-02T18:07:52.834Z,101339.56
2022-11-02T18:12:51.812Z,101257.31
2022-11-02T18:17:48.962Z,101262.13
2022-11-02T18:22:46.305Z,101365.97
2022-11-02T18:27:43.883Z,101313.97
2022-11-02T18:32:47.909Z,101325.56
2022-11-02T18:37:48.306Z,101384.53
2022-11-02T18:42:45.817Z,101364.16
2022-11-02T18:47:46.466Z,101321.78
2022-11-02T18:52:48.344Z,101325.72
2022-11-02T18:57:45.617Z,101370.19
2022-11-02T19:02:48.989Z,101269.59
2022-11-02T19:08:04.780Z,101391.13
2022-11-02T19:13:03.249Z,101354.72
2022-11-02T19:18:01.446Z,101369.81
2022-11-02T19:22:58.501Z,101403.78
2022-11-02T19:27:59.221Z,101398.81
2022-11-02T19:33:02.156Z,101396.59
2022-11-02T19:37:59.234Z,101361.88
2022-11-02T19:42:56.642Z,101425.63
2022-11-02T19:47:55.924Z,101319.91
2022-11-02T19:52:56.829Z,101420.47
2022-11-02T19:57:58.913Z,101361.59
2022-11-02T20:02:56.069Z,101431.47
2022-11-02T20:07:53.170Z,101357.16
2022-11-02T20:12:51.398Z,101437.88
2022-11-02T20:18:13.733Z,101356.31
2022-11-02T20:23:15.587Z,101389.88
2022-11-02T20:28:13.673Z,101366.44
2022-11-02T20:33:10.874Z,101444.34
2022-11-02T20:38:08.406Z,101426.94
2022-11-02T20:43:06.971Z,101454.88
2022-11-02T20:48:05.773Z,101451.25
2022-11-02T20:53:03.458Z,101448.09
2022-11-02T20:58:00.823Z,101406.59
2022-11-02T21:03:02.625Z,101408.84
2022-11-02T21:08:00.628Z,101463.56
2022-11-02T21:13:15.571Z,101420.31
2022-11-02T21:18:14.184Z,101453.91
2022-11-02T21:23:12.277Z,101409.47
2022-11-02T21:28:09.236Z,101440.66
2022-11-02T21:33:07.699Z,101441.97
2022-11-02T21:38:07.834Z,101400.75
2022-11-02T21:43:06.090Z,101468.00
2022-11-02T21:48:03.576Z,101473.78
2022-11-02T21:53:00.594Z,101485.91
2022-11-02T21:57:57.534Z,101494.72
2022-11-02T22:02:55.421Z,101491.91
2022-11-02T22:08:08.021Z,101427.59
2022-11-02T22:13:22.648Z,101463.41
2022-11-02T22:18:20.477Z,101513.50
2022-11-02T22:23:17.512Z,101480.97
2022-11-02T22:28:14.535Z,101500.16
2022-11-02T22:33:11.540Z,101481.97
2022-11-02T22:38:27.548Z,101546.91
2022-11-02T22:43:24.611Z,101534.81
2022-11-02T22:48:21.417Z,101547.66
2022-11-02T22:53:19.047Z,101563.47
2022-11-02T22:58:16.386Z,101523.31
2022-11-02T23:03:13.385Z,101569.81
2022-11-02T23:08:10.484Z,101505.88
2022-11-02T23:13:08.453Z,101534.38
2022-11-02T23:18:05.754Z,101591.22
2022-11-02T23:23:20.482Z,101584.69
2022-11-02T23:28:35.921Z,101574.91
2022-11-02T23:33:35.589Z,101568.56
2022-11-02T23:38:47.005Z,101593.44
2022-11-02T23:43:45.023Z,101579.53
2022-11-02T23:48:42.532Z,101628.56
2022-11-02T23:53:57.775Z,101598.63
2022-11-02T23:59:05.961Z,101665.63
